BERRYESSA (BER)

Elevation: 456' · PUTAH CR basin · Operator: US Bureau of Reclamation


Station comments:

07/01/2016Reservoir change sensor started again 07/01/2016. Previously ended 05/17/1999.


Provisional data, subject to change.
Query executed Monday at 18:25:21   clock

Select a sensor type for a plot of data.
Note: Reservoir Flows are daily averages.

Earlier

Date RES ELE    STORAGE    RES CHG    OUTFLOW    INFLOW    PPT INC   
 FEET   AF   AF   CFS   CFS   INCHES  
07/31/2016 403.53 929174 -1214 479 28 0.00
08/01/2016 403.45 927960 -1214 500 14 0.00
08/02/2016 403.37 926747 -1213 533 42 0.00
08/03/2016 403.29 925534 -1213 531 35 0.00
08/04/2016 403.19 924019 -1515 504 -116 0.00
08/05/2016 403.09 922506 -1513 508 -120 0.00
08/06/2016 403.01 921296 -1210 484 -24 0.00
08/07/2016 402.95 920389 -907 438 106 0.00
08/08/2016 402.88 919331 -1058 446 24 0.00
08/09/2016 402.80 918123 -1208 485 -3 0.00
08/10/2016 402.70 916614 -1509 484 -161 0.00
08/11/2016 402.63 915558 -1056 478 66 0.00
08/12/2016 402.54 914202 -1356 526 -38 0.00
08/13/2016 402.45 912846 -1356 540 4 0.00
08/14/2016 402.38 911793 -1053 503 106 0.00
08/15/2016 402.31 910740 -1053 508 120 0.00
08/16/2016 402.21 909236 -1504 515 -128 0.00
08/17/2016 402.13 908035 -1201 521 45 0.00
08/18/2016 402.04 906683 -1352 519 -34 0.00
08/19/2016 401.97 905633 -1050 499 99 0.00
08/20/2016 401.88 904284 -1349 481 -75 0.00
08/21/2016 401.81 903235 -1049 469 55 0.00
08/22/2016 401.71 901720 -1645 -- -- --
08/23/2016 401.63 900523 -1197 -- -- --
08/24/2016 401.56 899478 -1045 -- -- --
08/25/2016 401.48 898281 -1197 -- -- --
08/26/2016 401.41 897237 -1044 -- -- --
08/27/2016 401.34 896194 -1043 -- -- --
08/28/2016 401.25 894852 -1342 -- -- --
08/29/2016 -- -- -- -- -- --

Later | Latest

Warning! This data is preliminary and subject to revision.

Show BER Map | Plot BER Data | 1 Month BER Data | Real-Time BER Data | BER Info